Time;durP1;ratioP1;P1;durP2;ratioP2;P2;SDS_P1;SDS_P2;PMS_P1;PMS_P2;Temp;Humidity;BMP_temperature;BMP_pressure;BME280_temperature;BME280_humidity;BME280_pressure;Samples;Min_cycle;Max_cycle;Signal;HPM_P1;HPM_P2
2021/03/28 00:01:32;;;;;;;20.17;13.05;;;;;;;5.09;69.40;101359.00;5092239;28;20485;-72
2021/03/28 00:04:08;;;;;;;19.33;13.57;;;;;;;5.48;67.51;101348.69;5074157;28;20473;-72
2021/03/28 00:07:01;;;;;;;21.95;14.05;;;;;;;5.62;65.94;101362.34;5092393;28;20032;-73
2021/03/28 00:09:42;;;;;;;26.65;14.05;;;;;;;5.61;67.36;101368.19;5065190;28;20580;-71
2021/03/28 00:12:36;;;;;;;23.27;15.55;;;;;;;5.15;68.39;101370.00;5092143;28;20063;-73
2021/03/28 00:15:11;;;;;;;24.92;15.77;;;;;;;5.27;67.94;101364.31;5074808;28;20067;-72
2021/03/28 00:17:46;;;;;;;23.25;15.80;;;;;;;5.61;68.07;101364.00;5073838;28;20504;-73
2021/03/28 00:20:16;;;;;;;24.38;15.90;;;;;;;4.92;69.36;101365.41;5092054;28;20031;-73
2021/03/28 00:22:51;;;;;;;22.45;15.60;;;;;;;5.24;68.80;101351.69;5073712;28;20030;-72
2021/03/28 00:25:33;;;;;;;24.25;15.45;;;;;;;5.34;67.90;101361.09;5073630;28;20040;-71
2021/03/28 00:28:04;;;;;;;23.65;15.05;;;;;;;5.37;68.40;101350.19;5073618;28;20079;-71
2021/03/28 00:30:40;;;;;;;17.27;11.35;;;;;;;5.48;67.63;101346.16;5091820;28;20119;-72
2021/03/28 00:33:22;;;;;;;21.75;15.45;;;;;;;5.50;67.57;101360.50;5073713;28;20115;-72
2021/03/28 00:36:01;;;;;;;22.70;15.80;;;;;;;5.12;68.64;101328.78;5091660;28;20028;-72
2021/03/28 00:38:39;;;;;;;25.02;16.60;;;;;;;5.09;70.30;101359.84;5073820;28;20055;-72
2021/03/28 00:41:39;;;;;;;22.98;15.88;;;;;;;5.37;68.64;101355.25;5091541;28;20100;-73
2021/03/28 00:44:20;;;;;;;23.75;15.63;;;;;;;5.10;69.69;101353.13;5091885;28;20489;-72
2021/03/28 00:47:00;;;;;;;16.88;11.73;;;;;;;5.25;70.15;101356.72;5073465;28;20091;-73
2021/03/28 00:49:30;;;;;;;21.60;14.80;;;;;;;5.08;69.47;101348.06;5073467;28;20424;-72
2021/03/28 00:52:02;;;;;;;21.03;14.27;;;;;;;5.55;67.94;101348.78;5091696;28;20076;-73
2021/03/28 00:54:41;;;;;;;24.83;15.43;;;;;;;4.89;70.46;101348.56;5073693;28;20062;-72
2021/03/28 00:57:39;;;;;;;21.25;14.02;;;;;;;4.85;70.71;101353.56;5091360;28;20572;-73
2021/03/28 01:00:37;;;;;;;21.77;15.13;;;;;;;4.85;70.54;101351.03;5074510;28;20114;-73
2021/03/28 01:03:37;;;;;;;20.10;14.02;;;;;;;4.76;70.78;101348.34;5091325;28;20032;-73
2021/03/28 01:06:32;;;;;;;23.05;14.00;;;;;;;4.81;70.70;101350.13;5073232;28;20022;-73
2021/03/28 01:09:34;;;;;;;20.90;13.50;;;;;;;4.51;72.00;101356.28;5055636;28;20036;-73
2021/03/28 01:12:40;;;;;;;21.90;13.65;;;;;;;5.19;69.70;101346.56;5073195;28;20118;-72
2021/03/28 01:15:43;;;;;;;23.40;15.10;;;;;;;4.57;71.08;101349.69;5090913;28;20115;-72
2021/03/28 01:18:35;;;;;;;21.80;14.90;;;;;;;4.75;70.90;101350.03;5091253;28;20043;-73
2021/03/28 01:21:22;;;;;;;21.80;13.98;;;;;;;4.71;70.56;101355.84;5091084;28;20136;-72
2021/03/28 01:24:07;;;;;;;30.92;19.25;;;;;;;4.29;72.33;101345.81;5072810;28;20394;-72
2021/03/28 01:26:42;;;;;;;31.95;20.08;;;;;;;4.49;72.21;101356.25;5090194;28;20032;-72
2021/03/28 01:29:28;;;;;;;34.17;21.05;;;;;;;4.69;70.38;101352.44;5051764;28;20041;-71
2021/03/28 01:32:00;;;;;;;32.70;20.70;;;;;;;4.80;70.93;101345.91;5050835;28;20029;-71
2021/03/28 01:35:06;;;;;;;31.48;20.10;;;;;;;4.53;71.98;101347.94;5050768;28;20033;-73
2021/03/28 01:38:04;;;;;;;28.60;17.85;;;;;;;3.89;73.09;101322.31;5040716;28;20422;-72
2021/03/28 01:40:45;;;;;;;26.23;17.75;;;;;;;4.25;73.86;101356.63;5050706;28;20047;-72
2021/03/28 01:43:32;;;;;;;17.17;11.80;;;;;;;4.38;72.31;101360.22;5049418;28;20437;-72
2021/03/28 01:46:04;;;;;;;22.98;15.05;;;;;;;4.43;71.78;101348.59;5050866;28;20036;-72
2021/03/28 01:48:33;;;;;;;25.90;15.60;;;;;;;4.72;70.24;101347.44;5050696;28;20473;-73
2021/03/28 01:51:11;;;;;;;28.80;18.15;;;;;;;4.81;71.18;101351.78;5050641;28;20033;-72
2021/03/28 01:53:53;;;;;;;27.05;17.75;;;;;;;4.39;71.73;101361.94;5053204;28;20032;-72
2021/03/28 01:56:28;;;;;;;;;;;;;;;4.54;72.74;101352.13;5053737;28;20051;-72
2021/03/28 01:59:08;;;;;;;31.95;18.73;;;;;;;4.54;71.39;101347.09;5054306;28;20370;-72
2021/03/28 02:02:05;;;;;;;34.78;19.63;;;;;;;4.35;72.07;101350.97;5053048;28;20029;-72
2021/03/28 02:04:45;;;;;;;28.65;19.25;;;;;;;4.33;71.88;101340.00;5054333;28;20090;-72
2021/03/28 02:07:39;;;;;;;31.15;18.92;;;;;;;4.18;73.27;101344.72;5054121;28;20090;-72
2021/03/28 02:10:31;;;;;;;28.58;19.00;;;;;;;4.18;73.91;101347.25;5054346;28;20039;-73
2021/03/28 02:13:34;;;;;;;31.55;19.40;;;;;;;4.42;71.66;101309.09;5053239;28;20087;-72
2021/03/28 02:16:04;;;;;;;;;;;;;;;4.54;71.23;101349.63;5053366;28;20044;-72
2021/03/28 02:18:48;;;;;;;40.50;23.48;;;;;;;4.55;71.85;101346.28;5052872;28;19982;-71
2021/03/28 02:21:28;;;;;;;35.85;21.33;;;;;;;4.77;70.61;101345.00;5053912;28;20036;-73
2021/03/28 02:24:14;;;;;;;40.25;24.15;;;;;;;4.26;71.46;101350.78;5052673;28;20410;-72
2021/03/28 02:27:14;;;;;;;33.45;20.88;;;;;;;4.47;69.85;101352.84;5054434;28;20033;-73
2021/03/28 02:29:53;;;;;;;39.53;21.85;;;;;;;4.10;71.26;101356.31;5052592;28;20064;-71
2021/03/28 02:32:48;;;;;;;49.28;25.88;;;;;;;4.01;72.40;101360.31;5054019;28;20032;-73
2021/03/28 02:35:16;;;;;;;40.30;24.02;;;;;;;3.41;74.18;101358.16;5053927;28;20029;-72
2021/03/28 02:38:23;;;;;;;35.85;21.77;;;;;;;3.38;74.40;101355.59;5052391;28;20025;-73
2021/03/28 02:41:02;;;;;;;33.22;21.00;;;;;;;3.80;73.27;101362.38;5052406;28;20033;-72
2021/03/28 02:43:47;;;;;;;32.85;20.40;;;;;;;3.30;75.48;101361.25;5053887;28;20054;-72
2021/03/28 02:46:24;;;;;;;34.00;20.63;;;;;;;4.02;72.48;101364.53;5054048;28;20035;-72
2021/03/28 02:49:13;;;;;;;31.75;20.20;;;;;;;3.83;73.20;101362.44;5052371;28;20029;-71
2021/03/28 02:52:13;;;;;;;33.13;19.60;;;;;;;3.46;74.82;101363.28;5052118;28;20037;-72
2021/03/28 02:55:03;;;;;;;34.47;22.30;;;;;;;3.59;74.09;101349.31;5052343;28;20065;-73
2021/03/28 02:57:46;;;;;;;38.30;23.38;;;;;;;3.77;74.29;101362.28;5052218;28;20041;-72
2021/03/28 03:00:58;;;;;;;41.03;23.75;;;;;;;3.53;75.52;101368.50;5051654;28;20033;-71
2021/03/28 03:04:00;;;;;;;51.38;30.73;;;;;;;4.07;73.01;101367.97;5036474;28;20047;-72
2021/03/28 03:06:40;;;;;;;;;;;;;;;4.00;72.83;101364.47;5052428;28;20446;-72
2021/03/28 03:09:51;;;;;;;45.13;27.50;;;;;;;3.87;72.73;101355.00;5051744;28;20007;-73
2021/03/28 03:12:40;;;;;;;42.27;26.90;;;;;;;3.73;73.15;101360.53;5036580;28;20044;-72
2021/03/28 03:15:11;;;;;;;34.42;23.13;;;;;;;4.02;71.99;101374.59;5051878;28;20187;-72
2021/03/28 03:18:14;;;;;;;44.35;28.20;;;;;;;3.95;71.76;101372.75;5051825;28;20029;-72
2021/03/28 03:20:53;;;;;;;41.75;25.98;;;;;;;3.81;73.28;101381.66;5052868;28;20060;-73
2021/03/28 03:24:00;;;;;;;36.33;23.77;;;;;;;3.44;73.88;101380.88;5051845;28;20041;-72
2021/03/28 03:27:10;;;;;;;36.35;23.13;;;;;;;3.42;73.51;101372.44;5051695;28;20043;-72
2021/03/28 03:29:39;;;;;;;36.42;23.00;;;;;;;3.20;75.81;101382.78;5051378;28;20406;-72
2021/03/28 03:32:33;;;;;;;61.38;37.47;;;;;;;3.68;73.45;101360.47;5051617;28;20029;-72
2021/03/28 03:35:10;;;;;;;78.72;43.75;;;;;;;3.67;73.50;101388.91;5051340;28;20029;-72
2021/03/28 03:38:02;;;;;;;64.43;37.03;;;;;;;3.70;72.51;101386.47;5052676;28;20029;-72
2021/03/28 03:40:46;;;;;;;46.72;28.25;;;;;;;3.77;73.25;101398.38;5036409;28;20043;-73
2021/03/28 03:43:48;;;;;;;45.45;28.45;;;;;;;3.66;72.52;101396.44;5051420;28;20469;-72
2021/03/28 03:46:34;;;;;;;54.90;33.67;;;;;;;3.43;73.99;101391.72;5035447;28;20041;-72
2021/03/28 03:49:21;;;;;;;60.75;35.83;;;;;;;3.39;74.16;101397.47;5052404;28;20060;-72
2021/03/28 03:51:58;;;;;;;52.28;34.92;;;;;;;4.28;70.35;101391.06;5051159;28;20086;-72
2021/03/28 03:55:00;;;;;;;69.18;41.45;;;;;;;3.79;72.71;101393.34;5051143;28;20120;-72
2021/03/28 03:57:43;;;;;;;50.40;32.33;;;;;;;3.71;72.60;101395.72;5052214;28;20091;-72
2021/03/28 04:00:19;;;;;;;37.25;23.10;;;;;;;3.42;72.53;101397.56;5052437;28;20090;-72
2021/03/28 04:03:06;;;;;;;35.10;22.77;;;;;;;3.49;73.15;101404.44;5050963;28;20040;-72
2021/03/28 04:05:50;;;;;;;31.55;19.27;;;;;;;3.73;72.34;101400.75;5052008;28;20037;-73
2021/03/28 04:08:40;;;;;;;27.23;19.00;;;;;;;3.13;74.12;101412.75;5052216;28;20036;-72
2021/03/28 04:11:45;;;;;;;26.30;17.38;;;;;;;3.23;74.00;101407.97;5052000;28;20029;-72
2021/03/28 04:14:44;;;;;;;28.42;18.25;;;;;;;3.08;75.77;101406.75;5051417;28;20033;-72
2021/03/28 04:17:53;;;;;;;32.03;20.73;;;;;;;3.26;75.25;101409.72;5050726;28;20068;-72
2021/03/28 04:20:33;;;;;;;44.60;23.58;;;;;;;3.96;72.72;101407.16;5050665;28;20115;-71
2021/03/28 04:23:50;;;;;;;28.25;18.40;;;;;;;3.47;75.08;101410.22;5052018;28;20029;-72
2021/03/28 04:26:40;;;;;;;25.95;17.92;;;;;;;3.79;73.64;101405.94;4993548;28;20594;-72
2021/03/28 04:29:11;;;;;;;38.85;24.15;;;;;;;3.51;75.28;101405.31;5086550;28;20168;-71
2021/03/28 04:31:50;;;;;;;60.75;32.28;;;;;;;3.82;74.95;101406.88;5091663;28;20035;-72
2021/03/28 04:34:46;;;;;;;53.80;31.05;;;;;;;3.97;74.85;101416.41;5073257;28;20036;-72
2021/03/28 04:37:39;;;;;;;66.22;40.13;;;;;;;3.88;75.07;101411.19;5091370;28;20024;-71
2021/03/28 04:40:29;;;;;;;109.65;67.63;;;;;;;4.14;75.01;101412.59;5091386;28;20036;-72
2021/03/28 04:43:31;;;;;;;47.75;33.17;;;;;;;3.70;77.54;101415.78;5073580;28;20032;-71
2021/03/28 04:46:21;;;;;;;49.10;31.77;;;;;;;4.06;74.80;101411.59;5073689;28;20036;-72
2021/03/28 04:49:10;;;;;;;47.97;32.58;;;;;;;4.38;75.05;101425.66;5073625;28;20032;-72
2021/03/28 04:51:49;;;;;;;47.45;31.17;;;;;;;4.45;75.16;101417.44;5073521;28;20130;-72
2021/03/28 04:54:59;;;;;;;55.10;34.13;;;;;;;4.34;76.69;101423.91;5091605;28;20028;-73
2021/03/28 04:57:40;;;;;;;53.40;34.58;;;;;;;4.63;75.61;101422.84;5073344;28;20075;-72
2021/03/28 05:00:22;;;;;;;53.15;33.00;;;;;;;5.15;79.93;101417.91;5073236;28;20414;-73
2021/03/28 05:03:05;;;;;;;45.17;30.15;;;;;;;5.84;74.92;101424.94;5091429;28;20081;-74
2021/03/28 05:05:47;;;;;;;47.17;28.92;;;;;;;5.91;77.56;101426.69;5091774;28;20057;-73
2021/03/28 05:08:49;;;;;;;43.88;28.17;;;;;;;4.99;75.09;101423.50;5091587;28;20035;-73
2021/03/28 05:12:02;;;;;;;41.95;28.02;;;;;;;4.45;77.51;101440.09;5091261;28;20111;-74
2021/03/28 05:15:16;;;;;;;39.67;26.20;;;;;;;4.61;77.91;101432.03;5074220;28;20031;-74
2021/03/28 05:18:23;;;;;;;48.75;29.65;;;;;;;4.54;79.19;101441.91;5073690;28;20047;-74
2021/03/28 05:24:52;;;;;;;53.10;29.83;;;;;;;5.19;77.12;101441.47;5091948;28;20059;-74
2021/03/28 05:27:34;;;;;;;54.38;31.77;;;;;;;4.90;77.00;101415.78;5073487;28;20048;-74
2021/03/28 05:30:23;;;;;;;39.45;26.88;;;;;;;5.38;76.46;101443.50;5076698;28;20195;-73
2021/03/28 05:36:25;;;;;;;35.55;21.73;;;;;;;5.88;75.55;101445.16;5095484;28;20032;-74
2021/03/28 05:39:10;;;;;;;30.85;20.13;;;;;;;6.16;72.97;101443.03;5076104;28;20044;-74
2021/03/28 05:42:16;;;;;;;39.15;20.98;;;;;;;6.57;72.76;101440.22;5077006;28;20028;-74
2021/03/28 05:45:27;;;;;;;29.67;19.73;;;;;;;6.14;75.59;101443.84;5076791;28;20019;-74
2021/03/28 05:55:14;;;;;;;27.85;15.93;;;;;;;6.70;72.85;101452.16;5095619;28;20131;-74
2021/03/28 05:58:24;;;;;;;29.50;20.48;;;;;;;7.07;73.00;101452.53;5095414;28;20429;-74
2021/03/28 06:01:31;;;;;;;30.73;21.40;;;;;;;6.63;74.14;101455.44;5076878;28;20123;-74
2021/03/28 06:04:49;;;;;;;31.73;21.17;;;;;;;7.19;73.12;101457.72;5095295;28;20028;-74
2021/03/28 06:07:36;;;;;;;29.75;20.10;;;;;;;7.67;70.75;101463.19;5094257;28;20032;-74
2021/03/28 06:14:20;;;;;;;31.80;22.23;;;;;;;7.46;69.90;101447.84;5095045;28;20035;-74
2021/03/28 06:17:27;;;;;;;39.92;24.38;;;;;;;6.89;73.39;101461.63;5094730;28;20089;-74
2021/03/28 06:20:10;;;;;;;28.27;19.50;;;;;;;7.52;72.39;101452.97;5076461;28;20178;-74
2021/03/28 06:26:16;;;;;;;20.17;14.37;;;;;;;7.60;70.23;101464.00;5094431;28;20147;-74
2021/03/28 06:29:35;;;;;;;29.05;19.45;;;;;;;8.03;69.84;101460.06;5077280;28;20052;-75
2021/03/28 06:32:51;;;;;;;28.25;19.17;;;;;;;8.45;68.71;101462.88;5076398;28;20065;-74
2021/03/28 06:35:43;;;;;;;23.63;18.50;;;;;;;8.66;67.38;101466.34;5076203;28;20040;-74
2021/03/28 06:38:25;;;;;;;;;;;;;;;9.46;66.59;101455.53;5094188;28;20024;-75
2021/03/28 06:41:14;;;;;;;27.27;19.35;;;;;;;8.59;67.01;101466.31;5086090;28;19922;-74
2021/03/28 06:44:14;;;;;;;28.50;19.53;;;;;;;8.36;68.11;101471.28;4721156;28;10000447;-75
2021/03/28 06:47:11;;;;;;;27.63;19.42;;;;;;;9.92;63.69;101469.91;5089986;28;20032;-74
2021/03/28 06:49:59;;;;;;;27.90;20.33;;;;;;;9.74;63.94;101466.53;5071931;28;20034;-75
2021/03/28 06:52:38;;;;;;;29.85;20.35;;;;;;;9.75;64.77;101466.50;5071759;28;20028;-75
2021/03/28 06:55:37;;;;;;;29.55;22.35;;;;;;;10.68;61.79;101468.00;5089761;28;20059;-74
2021/03/28 06:58:34;;;;;;;29.77;21.08;;;;;;;10.67;61.61;101462.94;5082181;28;20083;-74
2021/03/28 07:01:21;;;;;;;30.52;21.85;;;;;;;10.76;61.72;101433.19;5089129;28;20036;-75
2021/03/28 07:04:15;;;;;;;29.05;20.23;;;;;;;10.71;61.16;101462.06;5070539;28;20149;-76
2021/03/28 07:07:15;;;;;;;24.95;19.35;;;;;;;10.40;62.47;101468.94;5087272;28;20118;-75
2021/03/28 07:09:59;;;;;;;28.10;20.70;;;;;;;10.77;61.00;101473.06;5069678;28;20051;-74
2021/03/28 07:13:02;;;;;;;26.45;19.85;;;;;;;11.56;61.13;101467.47;5070223;28;20024;-75
2021/03/28 07:15:37;;;;;;;27.33;19.88;;;;;;;11.72;60.18;101469.91;5088700;28;20417;-75
2021/03/28 07:18:39;;;;;;;26.42;20.10;;;;;;;11.33;60.89;101449.78;5070620;28;20115;-76
2021/03/28 07:21:36;;;;;;;23.55;18.23;;;;;;;10.94;60.60;101463.63;5069512;28;20116;-74
2021/03/28 07:24:23;;;;;;;24.83;18.33;;;;;;;12.52;56.80;101466.50;5070396;28;20058;-75
2021/03/28 07:27:21;;;;;;;27.05;18.52;;;;;;;12.35;58.26;101459.91;5071026;28;20024;-75
2021/03/28 07:30:14;;;;;;;36.90;24.70;;;;;;;11.85;57.58;101457.88;5088422;28;20036;-74
2021/03/28 07:33:22;;;;;;;21.67;17.50;;;;;;;11.23;59.59;101460.94;5070273;28;20523;-75
2021/03/28 07:36:00;;;;;;;30.27;21.30;;;;;;;12.33;56.45;101465.03;5069875;28;20046;-75
2021/03/28 07:38:58;;;;;;;20.00;16.13;;;;;;;11.58;57.91;101466.59;5070519;28;20063;-74
2021/03/28 07:41:43;;;;;;;25.33;18.25;;;;;;;13.47;54.42;101457.53;5087189;28;20032;-72
2021/03/28 07:44:14;;;;;;;22.27;17.35;;;;;;;12.77;54.93;101465.38;5083029;28;20092;-74
2021/03/28 07:47:17;;;;;;;23.02;16.67;;;;;;;12.37;54.34;101469.25;5067313;28;20078;-74
2021/03/28 07:50:10;;;;;;;22.65;15.75;;;;;;;13.40;53.69;101462.78;5070788;28;20456;-74
2021/03/28 07:56:17;;;;;;;36.63;25.40;;;;;;;13.62;51.78;101454.75;5107914;28;20048;-74
2021/03/28 08:02:28;;;;;;;20.98;16.20;;;;;;;13.96;50.33;101449.03;5108086;28;20035;-75
2021/03/28 08:05:26;;;;;;;21.75;16.33;;;;;;;13.85;50.47;101450.06;5089574;28;20045;-76
2021/03/28 08:08:21;;;;;;;20.15;15.10;;;;;;;13.24;51.82;101444.28;5089398;28;20419;-74
2021/03/28 08:11:07;;;;;;;20.17;16.33;;;;;;;13.77;51.24;101434.03;5089865;28;20031;-74
2021/03/28 08:14:11;;;;;;;22.58;17.55;;;;;;;13.17;54.23;101439.31;5108322;28;20788;-75
2021/03/28 08:17:08;;;;;;;30.05;20.58;;;;;;;14.94;49.76;101442.78;5080221;28;20044;-74
2021/03/28 08:20:00;;;;;;;23.92;18.05;;;;;;;13.55;52.94;101445.47;5107712;28;20104;-74
2021/03/28 08:22:51;;;;;;;23.63;17.35;;;;;;;13.88;53.83;101439.78;5089964;28;21049;-74
2021/03/28 08:25:36;;;;;;;20.85;15.48;;;;;;;14.23;53.08;101438.28;5089198;28;20099;-74
2021/03/28 08:28:46;;;;;;;20.35;15.55;;;;;;;14.12;51.26;101440.22;5078081;28;20080;-73
2021/03/28 08:31:33;;;;;;;18.63;14.98;;;;;;;14.09;52.19;101442.81;5032023;28;20627;-72
2021/03/28 08:34:43;;;;;;;21.10;15.70;;;;;;;15.61;49.49;101435.22;5043285;28;20029;-73
2021/03/28 08:37:33;;;;;;;23.85;17.33;;;;;;;15.50;49.52;101431.25;4990309;28;20392;-74
2021/03/28 08:40:36;;;;;;;20.73;16.70;;;;;;;15.06;50.09;101431.41;5041625;28;20422;-74
2021/03/28 08:43:19;;;;;;;22.98;18.13;;;;;;;15.41;49.27;101431.44;5041883;28;20043;-73
2021/03/28 08:46:00;;;;;;;24.30;17.98;;;;;;;16.15;48.05;101427.81;5064762;28;20040;-74
2021/03/28 08:48:39;;;;;;;23.08;18.85;;;;;;;16.16;47.82;101423.53;5065209;28;20032;-73
2021/03/28 08:51:14;;;;;;;23.85;17.60;;;;;;;14.92;49.23;101424.06;5066705;28;20090;-73
2021/03/28 08:54:18;;;;;;;23.48;17.58;;;;;;;15.27;48.91;101418.94;5064955;28;20082;-74
2021/03/28 08:56:53;;;;;;;19.77;16.27;;;;;;;15.98;47.46;101422.28;5036407;28;20044;-73
2021/03/28 08:59:29;;;;;;;24.60;18.23;;;;;;;15.68;48.13;101419.69;5055722;28;20482;-72
2021/03/28 09:02:13;;;;;;;20.63;17.15;;;;;;;16.32;47.25;101410.19;5043371;28;20032;-74
2021/03/28 09:04:50;;;;;;;21.05;16.23;;;;;;;16.21;48.04;101408.81;5043853;28;20040;-73
2021/03/28 09:07:34;;;;;;;22.15;16.92;;;;;;;16.19;47.81;101414.00;5045077;28;20398;-73
2021/03/28 09:10:21;;;;;;;22.73;16.70;;;;;;;16.60;47.32;101400.00;5045607;28;20075;-72
2021/03/28 09:13:15;;;;;;;18.92;15.27;;;;;;;16.60;47.02;101401.75;5041965;28;20032;-74
2021/03/28 09:16:29;;;;;;;17.73;14.88;;;;;;;17.43;45.57;101396.50;5045859;28;20029;-71
2021/03/28 09:19:13;;;;;;;21.92;16.83;;;;;;;16.79;46.50;101374.59;4957338;28;20053;-72
2021/03/28 09:21:59;;;;;;;19.15;15.40;;;;;;;17.08;45.67;101395.91;5045186;28;20113;-73
2021/03/28 09:24:45;;;;;;;21.98;16.27;;;;;;;17.92;44.73;101388.81;5045655;28;20037;-72
2021/03/28 09:27:36;;;;;;;20.98;16.63;;;;;;;17.17;46.41;101387.09;5046588;28;20036;-75
2021/03/28 09:30:22;;;;;;;21.63;16.60;;;;;;;16.92;47.06;101383.59;5044867;28;20048;-74
2021/03/28 09:33:02;;;;;;;21.35;15.45;;;;;;;18.34;43.85;101374.41;5043834;28;20099;-75
2021/03/28 09:36:05;;;;;;;20.80;15.88;;;;;;;17.74;44.77;101374.03;5044885;28;20029;-74
2021/03/28 09:38:34;;;;;;;22.27;16.63;;;;;;;18.39;43.51;101369.91;5045585;28;20033;-75
2021/03/28 09:41:21;;;;;;;24.65;18.58;;;;;;;18.92;42.64;101370.41;5046051;28;20033;-72
2021/03/28 09:44:14;;;;;;;18.80;14.35;;;;;;;17.70;43.72;101359.59;5045179;28;20029;-73
2021/03/28 09:47:08;;;;;;;17.27;13.90;;;;;;;18.10;42.90;101360.66;5044246;28;20043;-73
2021/03/28 09:50:00;;;;;;;16.60;13.70;;;;;;;18.80;43.98;101352.84;5044721;28;20383;-73
2021/03/28 09:52:56;;;;;;;17.63;13.40;;;;;;;18.07;43.98;101353.06;5044629;28;20049;-74
2021/03/28 09:55:27;;;;;;;18.95;14.10;;;;;;;18.32;44.84;101347.88;5044960;28;20029;-74
2021/03/28 09:57:56;;;;;;;46.78;23.23;;;;;;;19.71;41.03;101348.16;5045755;28;20492;-74
2021/03/28 10:00:46;;;;;;;20.35;15.90;;;;;;;19.45;42.21;101351.03;5046108;28;20091;-74
2021/03/28 10:03:37;;;;;;;21.83;15.48;;;;;;;19.50;41.37;101340.50;5045110;28;20033;-73
2021/03/28 10:06:23;;;;;;;18.77;14.68;;;;;;;19.24;42.38;101344.16;5046633;28;20452;-74
2021/03/28 10:09:00;;;;;;;17.27;13.73;;;;;;;19.74;41.20;101331.72;5045783;28;20040;-74
2021/03/28 10:12:06;;;;;;;20.52;15.75;;;;;;;19.24;41.84;101335.59;5045184;28;20485;-74
2021/03/28 10:14:44;;;;;;;18.05;13.60;;;;;;;20.29;40.57;101327.50;5049185;28;20032;-72
2021/03/28 10:17:35;;;;;;;21.48;14.63;;;;;;;20.35;39.34;101319.47;5048390;28;20457;-73
2021/03/28 10:20:41;;;;;;;25.23;14.55;;;;;;;20.50;40.08;101319.59;5047964;28;20111;-74
2021/03/28 10:23:29;;;;;;;18.25;12.70;;;;;;;19.73;39.76;101330.88;5044942;28;20041;-74
2021/03/28 10:26:36;;;;;;;21.08;14.10;;;;;;;21.24;38.31;101320.28;5048268;28;20072;-72
2021/03/28 10:29:10;;;;;;;15.18;12.07;;;;;;;20.57;38.49;101313.22;5064781;28;20048;-74
2021/03/28 10:31:37;;;;;;;14.05;11.02;;;;;;;20.91;38.00;101309.84;5069125;28;20031;-72
2021/03/28 10:34:12;;;;;;;21.15;16.63;;;;;;;20.89;37.52;101305.66;5051377;28;20040;-72
2021/03/28 10:37:00;;;;;;;18.63;13.05;;;;;;;20.12;38.88;101310.19;5065545;28;20028;-73
2021/03/28 10:39:29;;;;;;;14.93;12.27;;;;;;;20.12;38.17;101310.19;5070737;28;20194;-73
2021/03/28 10:42:38;;;;;;;13.77;10.85;;;;;;;20.59;37.50;101303.66;5089172;28;20128;-75
2021/03/28 10:45:31;;;;;;;16.77;13.65;;;;;;;21.31;38.38;101300.97;5056938;28;20437;-75
2021/03/28 10:48:30;;;;;;;15.02;11.80;;;;;;;21.35;37.27;101292.94;5051401;28;20398;-74
2021/03/28 10:51:01;;;;;;;13.38;11.95;;;;;;;20.99;37.02;101291.34;5069049;28;20488;-74
2021/03/28 10:53:53;;;;;;;12.52;10.13;;;;;;;20.20;37.09;101294.38;5051612;28;20040;-75
2021/03/28 10:56:53;;;;;;;14.40;10.70;;;;;;;21.68;35.44;101292.13;5053344;28;20097;-73
2021/03/28 10:59:40;;;;;;;11.75;9.15;;;;;;;20.67;33.18;101291.19;5070439;28;20113;-76
2021/03/28 11:02:43;;;;;;;13.60;9.25;;;;;;;20.76;33.11;101276.97;5070573;28;20028;-78
2021/03/28 11:05:35;;;;;;;11.10;8.00;;;;;;;22.44;32.25;101274.13;5070171;28;20120;-76
2021/03/28 11:08:15;;;;;;;12.20;9.07;;;;;;;21.53;33.66;101267.88;5069702;28;20032;-75
2021/03/28 11:11:36;;;;;;;20.90;13.77;;;;;;;22.05;31.54;101252.97;5069982;28;20051;-73
2021/03/28 11:14:34;;;;;;;15.07;9.27;;;;;;;22.36;32.17;101271.13;5040492;28;20108;-74
2021/03/28 11:17:19;;;;;;;10.00;8.10;;;;;;;22.58;33.02;101268.19;5070544;28;20126;-76
2021/03/28 11:19:57;;;;;;;13.85;10.93;;;;;;;22.96;31.51;101262.44;5069726;28;20105;-73
2021/03/28 11:22:39;;;;;;;11.73;8.80;;;;;;;22.18;31.16;101257.44;5070290;28;20065;-74
2021/03/28 11:25:19;;;;;;;10.25;8.07;;;;;;;23.28;31.12;101257.94;5070503;28;20032;-75
2021/03/28 11:27:54;;;;;;;10.93;8.88;;;;;;;21.88;32.44;101253.91;5083534;28;20048;-76
2021/03/28 11:30:45;;;;;;;10.00;8.00;;;;;;;23.99;29.84;101246.56;5070444;28;20154;-74
2021/03/28 11:33:33;;;;;;;;;;;;;;;23.40;30.51;101246.84;5066884;28;20036;-71
2021/03/28 11:36:01;;;;;;;11.68;8.45;;;;;;;23.53;29.75;101252.13;5088393;28;19966;-74
2021/03/28 11:39:06;;;;;;;9.68;8.07;;;;;;;21.76;31.96;101246.78;5070244;28;20059;-71
2021/03/28 11:41:59;;;;;;;10.40;7.82;;;;;;;23.06;30.48;101234.19;5039828;28;20028;-77
2021/03/28 11:44:41;;;;;;;10.05;7.35;;;;;;;22.54;31.26;101222.56;5070500;28;20019;-74
2021/03/28 11:47:25;;;;;;;9.18;7.20;;;;;;;20.73;33.20;101210.75;5097038;28;20028;-75
2021/03/28 11:49:58;;;;;;;12.68;7.93;;;;;;;21.40;32.33;101225.44;5077954;28;20032;-75
2021/03/28 11:52:30;;;;;;;11.95;9.75;;;;;;;21.93;32.06;101210.47;5074762;28;20032;-74
2021/03/28 11:55:07;;;;;;;11.75;8.68;;;;;;;22.25;31.45;101203.47;5061883;28;20447;-73
2021/03/28 11:57:34;;;;;;;9.15;7.40;;;;;;;21.26;32.74;101212.38;5048881;28;20497;-74
2021/03/28 12:00:52;;;;;;;11.63;8.43;;;;;;;20.86;33.81;101212.75;5066590;28;20028;-73
2021/03/28 12:03:21;;;;;;;9.63;7.53;;;;;;;20.57;32.97;101215.03;5024723;28;20057;-75
2021/03/28 12:06:01;;;;;;;9.52;7.85;;;;;;;21.80;32.27;101206.00;5079342;28;20405;-74
2021/03/28 12:08:33;;;;;;;10.43;7.20;;;;;;;20.57;33.03;101198.66;5076854;28;20020;-74
2021/03/28 12:11:42;;;;;;;8.80;7.28;;;;;;;21.86;30.86;101196.19;5102523;28;20051;-74
2021/03/28 12:14:31;;;;;;;10.60;7.88;;;;;;;21.64;31.43;101187.88;5087347;28;20027;-76
2021/03/28 12:17:05;;;;;;;10.57;7.80;;;;;;;21.27;31.87;101194.16;5075509;28;20032;-76
2021/03/28 12:19:52;;;;;;;14.20;8.85;;;;;;;21.15;32.27;101197.44;5102554;28;20027;-74
2021/03/28 12:22:56;;;;;;;11.38;7.53;;;;;;;20.87;33.50;101191.97;5107058;28;20088;-74
2021/03/28 12:25:40;;;;;;;11.88;7.68;;;;;;;21.61;31.48;101166.50;4969103;28;20041;-73
2021/03/28 12:28:28;;;;;;;10.15;8.00;;;;;;;20.65;32.49;101168.94;5032495;28;20053;-75
2021/03/28 12:30:59;;;;;;;10.43;7.70;;;;;;;20.99;31.32;101173.25;5061714;28;20850;-74
2021/03/28 12:33:51;;;;;;;16.15;12.55;;;;;;;20.95;32.62;101191.56;5056000;28;20037;-74
2021/03/28 12:36:17;;;;;;;16.67;10.73;;;;;;;20.46;34.07;101180.28;5014768;28;20037;-74
2021/03/28 12:38:48;;;;;;;12.88;9.30;;;;;;;20.63;34.44;101178.53;5042212;28;20029;-74
2021/03/28 12:41:22;;;;;;;12.87;8.93;;;;;;;21.41;32.40;101188.28;5057768;28;20052;-75
2021/03/28 12:44:07;;;;;;;13.82;9.80;;;;;;;22.18;31.97;101166.72;5053899;28;20037;-74
2021/03/28 12:46:51;;;;;;;11.43;9.45;;;;;;;22.26;30.39;101182.66;5038013;28;20033;-74
2021/03/28 12:49:52;;;;;;;14.70;9.43;;;;;;;22.48;30.21;101181.44;5038881;28;20404;-72
2021/03/28 12:52:31;;;;;;;11.60;9.30;;;;;;;21.49;31.15;101170.59;5015227;28;20098;-74
2021/03/28 12:55:03;;;;;;;12.77;9.02;;;;;;;20.89;32.64;101192.72;5047537;28;20467;-74
2021/03/28 12:57:48;;;;;;;12.30;9.20;;;;;;;21.00;31.81;101192.16;5044412;28;20043;-72
2021/03/28 13:00:38;;;;;;;12.18;8.85;;;;;;;20.90;31.29;101188.41;5044655;28;20486;-74
2021/03/28 13:03:45;;;;;;;12.18;8.77;;;;;;;20.90;30.82;101189.22;5044099;28;20730;-72
2021/03/28 13:06:41;;;;;;;10.77;8.77;;;;;;;20.78;31.13;101186.44;5030593;28;20041;-73
2021/03/28 13:09:11;;;;;;;11.52;8.65;;;;;;;20.79;31.81;101183.75;5045090;28;20044;-76
2021/03/28 13:11:38;;;;;;;11.50;8.50;;;;;;;20.45;32.93;101192.34;5047137;28;20032;-76
2021/03/28 13:14:22;;;;;;;15.50;9.05;;;;;;;20.48;32.98;101181.84;5045677;28;20036;-73
2021/03/28 13:16:57;;;;;;;15.43;9.52;;;;;;;20.37;33.74;101172.97;5045643;28;20029;-75
2021/03/28 13:19:27;;;;;;;12.70;9.65;;;;;;;20.34;33.61;101184.28;5044913;28;20124;-72
2021/03/28 13:22:23;;;;;;;13.35;10.55;;;;;;;20.13;34.13;101169.78;5030282;28;20027;-73